sensor_id;sensor_type;location;lat;lon;timestamp;pressure;altitude;pressure_sealevel;temperature;humidity
69909;BME280;57190;47.918;8.112;2022-09-09T00:02:23;90674.56;;;12.03;71.06
69909;BME280;57190;47.918;8.112;2022-09-09T00:07:49;90677.81;;;12.00;71.43
69909;BME280;57190;47.918;8.112;2022-09-09T00:10:28;90670.84;;;11.94;71.58
69909;BME280;57190;47.918;8.112;2022-09-09T00:12:57;90670.09;;;11.88;71.94
69909;BME280;57190;47.918;8.112;2022-09-09T00:15:31;90675.72;;;11.87;71.86
69909;BME280;57190;47.918;8.112;2022-09-09T00:18:27;90676.56;;;11.82;72.10
69909;BME280;57190;47.918;8.112;2022-09-09T00:21:00;90668.59;;;11.77;72.06
69909;BME280;57190;47.918;8.112;2022-09-09T00:23:30;90667.03;;;11.71;71.83
69909;BME280;57190;47.918;8.112;2022-09-09T00:26:38;90665.72;;;11.68;72.35
69909;BME280;57190;47.918;8.112;2022-09-09T00:31:38;90670.16;;;11.83;72.12
69909;BME280;57190;47.918;8.112;2022-09-09T00:34:16;90676.81;;;11.86;72.15
69909;BME280;57190;47.918;8.112;2022-09-09T00:36:43;90670.38;;;11.87;71.96
69909;BME280;57190;47.918;8.112;2022-09-09T00:39:34;90667.47;;;11.83;72.61
69909;BME280;57190;47.918;8.112;2022-09-09T00:42:20;90669.59;;;11.86;72.38
69909;BME280;57190;47.918;8.112;2022-09-09T00:44:51;90666.09;;;11.91;72.16
69909;BME280;57190;47.918;8.112;2022-09-09T00:47:40;90665.25;;;11.95;71.94
69909;BME280;57190;47.918;8.112;2022-09-09T00:50:30;90670.59;;;11.95;71.69
69909;BME280;57190;47.918;8.112;2022-09-09T00:53:22;90673.25;;;12.01;72.33
69909;BME280;57190;47.918;8.112;2022-09-09T00:56:12;90681.22;;;12.06;72.65
69909;BME280;57190;47.918;8.112;2022-09-09T00:58:38;90685.47;;;12.12;72.18
69909;BME280;57190;47.918;8.112;2022-09-09T01:01:04;90680.28;;;12.21;71.81
69909;BME280;57190;47.918;8.112;2022-09-09T01:03:36;90679.47;;;12.25;72.12
69909;BME280;57190;47.918;8.112;2022-09-09T01:06:13;90669.06;;;12.24;72.44
69909;BME280;57190;47.918;8.112;2022-09-09T01:11:24;90672.47;;;12.30;72.00
69909;BME280;57190;47.918;8.112;2022-09-09T01:14:02;90667.38;;;12.33;72.25
69909;BME280;57190;47.918;8.112;2022-09-09T01:16:30;90665.72;;;12.37;72.14
69909;BME280;57190;47.918;8.112;2022-09-09T01:18:58;90663.84;;;12.38;72.19
69909;BME280;57190;47.918;8.112;2022-09-09T01:24:19;90652.88;;;12.34;71.77
69909;BME280;57190;47.918;8.112;2022-09-09T01:26:51;90660.59;;;12.41;72.22
69909;BME280;57190;47.918;8.112;2022-09-09T01:29:20;90659.44;;;12.47;71.79
69909;BME280;57190;47.918;8.112;2022-09-09T01:32:01;90655.69;;;12.48;71.30
69909;BME280;57190;47.918;8.112;2022-09-09T01:34:29;90654.91;;;12.48;71.45
69909;BME280;57190;47.918;8.112;2022-09-09T01:37:11;90654.09;;;12.47;71.50
69909;BME280;57190;47.918;8.112;2022-09-09T01:39:38;90661.78;;;12.54;71.57
69909;BME280;57190;47.918;8.112;2022-09-09T01:42:09;90657.97;;;12.60;71.70
69909;BME280;57190;47.918;8.112;2022-09-09T01:44:36;90656.91;;;12.61;71.90
69909;BME280;57190;47.918;8.112;2022-09-09T01:47:03;90654.19;;;12.66;72.60
69909;BME280;57190;47.918;8.112;2022-09-09T01:49:29;90654.13;;;12.71;72.25
69909;BME280;57190;47.918;8.112;2022-09-09T01:51:55;90659.25;;;12.68;72.55
69909;BME280;57190;47.918;8.112;2022-09-09T01:54:24;90663.75;;;12.72;73.44
69909;BME280;57190;47.918;8.112;2022-09-09T01:57:18;90666.50;;;12.67;75.36
69909;BME280;57190;47.918;8.112;2022-09-09T02:07:48;90674.88;;;12.31;79.59
69909;BME280;57190;47.918;8.112;2022-09-09T02:10:42;90655.91;;;12.27;80.29
69909;BME280;57190;47.918;8.112;2022-09-09T02:13:14;90664.19;;;12.26;81.40
69909;BME280;57190;47.918;8.112;2022-09-09T02:15:53;90666.88;;;12.26;81.19
69909;BME280;57190;47.918;8.112;2022-09-09T02:21:08;90669.06;;;12.24;81.28
69909;BME280;57190;47.918;8.112;2022-09-09T02:23:38;90670.66;;;12.25;81.44
69909;BME280;57190;47.918;8.112;2022-09-09T02:26:05;90664.25;;;12.21;81.70
69909;BME280;57190;47.918;8.112;2022-09-09T02:28:34;90668.00;;;12.20;81.85
69909;BME280;57190;47.918;8.112;2022-09-09T02:31:02;90662.88;;;12.23;81.79
69909;BME280;57190;47.918;8.112;2022-09-09T02:33:32;90657.38;;;12.15;82.45
69909;BME280;57190;47.918;8.112;2022-09-09T02:36:01;90652.28;;;12.13;82.34
69909;BME280;57190;47.918;8.112;2022-09-09T02:38:32;90659.00;;;12.10;82.79
69909;BME280;57190;47.918;8.112;2022-09-09T02:41:00;90659.22;;;12.14;82.82
69909;BME280;57190;47.918;8.112;2022-09-09T02:43:31;90656.00;;;12.17;82.60
69909;BME280;57190;47.918;8.112;2022-09-09T02:54:20;90657.63;;;12.13;83.60
69909;BME280;57190;47.918;8.112;2022-09-09T02:56:52;90656.56;;;12.14;82.97
69909;BME280;57190;47.918;8.112;2022-09-09T02:59:20;90658.44;;;12.14;83.00
69909;BME280;57190;47.918;8.112;2022-09-09T03:01:46;90663.50;;;12.15;83.12
69909;BME280;57190;47.918;8.112;2022-09-09T03:04:12;90666.69;;;12.17;83.15
69909;BME280;57190;47.918;8.112;2022-09-09T03:06:38;90666.16;;;12.20;83.25
69909;BME280;57190;47.918;8.112;2022-09-09T03:09:04;90666.41;;;12.19;83.10
69909;BME280;57190;47.918;8.112;2022-09-09T03:11:29;90660.50;;;12.22;83.05
69909;BME280;57190;47.918;8.112;2022-09-09T03:13:55;90654.88;;;12.23;82.80
69909;BME280;57190;47.918;8.112;2022-09-09T03:16:23;90659.69;;;12.21;82.74
69909;BME280;57190;47.918;8.112;2022-09-09T03:18:49;90656.00;;;12.17;82.83
69909;BME280;57190;47.918;8.112;2022-09-09T03:21:15;90657.59;;;12.18;83.21
69909;BME280;57190;47.918;8.112;2022-09-09T03:23:41;90646.09;;;12.18;83.05
69909;BME280;57190;47.918;8.112;2022-09-09T03:26:07;90646.59;;;12.20;82.84
69909;BME280;57190;47.918;8.112;2022-09-09T03:28:32;90644.53;;;12.17;83.29
69909;BME280;57190;47.918;8.112;2022-09-09T03:31:04;90647.97;;;12.17;82.69
69909;BME280;57190;47.918;8.112;2022-09-09T03:33:30;90639.72;;;12.14;83.04
69909;BME280;57190;47.918;8.112;2022-09-09T03:35:57;90638.91;;;12.13;83.20
69909;BME280;57190;47.918;8.112;2022-09-09T03:38:26;90640.56;;;12.09;83.27
69909;BME280;57190;47.918;8.112;2022-09-09T03:40:53;90651.81;;;12.06;83.49
69909;BME280;57190;47.918;8.112;2022-09-09T03:43:21;90646.19;;;12.07;83.29
69909;BME280;57190;47.918;8.112;2022-09-09T03:45:47;90646.44;;;12.11;83.45
69909;BME280;57190;47.918;8.112;2022-09-09T03:48:14;90644.53;;;12.11;83.22
69909;BME280;57190;47.918;8.112;2022-09-09T03:50:47;90651.19;;;12.14;83.58
69909;BME280;57190;47.918;8.112;2022-09-09T03:53:14;90651.72;;;12.16;83.51
69909;BME280;57190;47.918;8.112;2022-09-09T03:55:44;90647.69;;;12.19;83.18
69909;BME280;57190;47.918;8.112;2022-09-09T03:58:11;90650.66;;;12.17;83.40
69909;BME280;57190;47.918;8.112;2022-09-09T04:00:37;90647.97;;;12.17;83.32
69909;BME280;57190;47.918;8.112;2022-09-09T04:03:05;90648.03;;;12.12;83.46
69909;BME280;57190;47.918;8.112;2022-09-09T04:05:31;90645.38;;;12.12;83.72
69909;BME280;57190;47.918;8.112;2022-09-09T04:07:59;90640.81;;;12.13;83.62
69909;BME280;57190;47.918;8.112;2022-09-09T04:10:24;90640.28;;;12.10;83.74
69909;BME280;57190;47.918;8.112;2022-09-09T04:12:50;90637.91;;;12.09;83.91
69909;BME280;57190;47.918;8.112;2022-09-09T04:15:15;90635.44;;;12.13;83.47
69909;BME280;57190;47.918;8.112;2022-09-09T04:17:41;90624.75;;;12.13;83.81
69909;BME280;57190;47.918;8.112;2022-09-09T04:20:07;90636.53;;;12.11;83.47
69909;BME280;57190;47.918;8.112;2022-09-09T04:22:36;90639.25;;;12.06;83.21
69909;BME280;57190;47.918;8.112;2022-09-09T04:25:05;90644.63;;;12.01;83.13
69909;BME280;57190;47.918;8.112;2022-09-09T04:27:31;90646.00;;;11.99;82.86
69909;BME280;57190;47.918;8.112;2022-09-09T04:29:57;90644.72;;;11.91;82.70
69909;BME280;57190;47.918;8.112;2022-09-09T04:32:23;90653.56;;;11.86;83.01
69909;BME280;57190;47.918;8.112;2022-09-09T04:34:51;90653.56;;;11.86;82.84
69909;BME280;57190;47.918;8.112;2022-09-09T04:37:17;90649.81;;;11.87;83.14
69909;BME280;57190;47.918;8.112;2022-09-09T04:39:42;90659.69;;;11.87;83.62
69909;BME280;57190;47.918;8.112;2022-09-09T04:42:08;90660.47;;;11.92;83.37
69909;BME280;57190;47.918;8.112;2022-09-09T04:44:33;90658.84;;;11.91;83.27
69909;BME280;57190;47.918;8.112;2022-09-09T04:46:59;90656.00;;;11.83;83.16
69909;BME280;57190;47.918;8.112;2022-09-09T04:49:25;90658.91;;;11.86;83.23
69909;BME280;57190;47.918;8.112;2022-09-09T04:51:51;90656.78;;;11.83;82.92
69909;BME280;57190;47.918;8.112;2022-09-09T04:54:18;90660.81;;;11.80;83.45
69909;BME280;57190;47.918;8.112;2022-09-09T04:56:44;90661.84;;;11.85;83.28
69909;BME280;57190;47.918;8.112;2022-09-09T04:59:09;90662.13;;;11.83;83.24
69909;BME280;57190;47.918;8.112;2022-09-09T05:01:35;90660.00;;;11.80;83.33
69909;BME280;57190;47.918;8.112;2022-09-09T05:04:02;90657.84;;;11.82;83.39
69909;BME280;57190;47.918;8.112;2022-09-09T05:06:28;90659.47;;;11.83;83.48
69909;BME280;57190;47.918;8.112;2022-09-09T05:08:56;90654.63;;;11.85;83.68
69909;BME280;57190;47.918;8.112;2022-09-09T05:11:25;90654.63;;;11.85;83.49
69909;BME280;57190;47.918;8.112;2022-09-09T05:13:52;90649.84;;;11.82;83.87
69909;BME280;57190;47.918;8.112;2022-09-09T05:16:19;90657.56;;;11.84;83.54
69909;BME280;57190;47.918;8.112;2022-09-09T05:18:45;90656.25;;;11.86;83.65
69909;BME280;57190;47.918;8.112;2022-09-09T05:21:13;90660.22;;;11.89;83.45
69909;BME280;57190;47.918;8.112;2022-09-09T05:23:39;90662.38;;;11.87;83.86
69909;BME280;57190;47.918;8.112;2022-09-09T05:26:06;90661.28;;;11.88;83.75
69909;BME280;57190;47.918;8.112;2022-09-09T05:28:34;90659.41;;;11.88;83.91
69909;BME280;57190;47.918;8.112;2022-09-09T05:31:08;90667.94;;;11.90;83.54
69909;BME280;57190;47.918;8.112;2022-09-09T05:33:35;90669.03;;;11.89;83.87
69909;BME280;57190;47.918;8.112;2022-09-09T05:36:06;90672.22;;;11.91;83.67
69909;BME280;57190;47.918;8.112;2022-09-09T05:38:34;90661.81;;;11.90;83.85
69909;BME280;57190;47.918;8.112;2022-09-09T05:41:01;90660.50;;;11.87;84.00
69909;BME280;57190;47.918;8.112;2022-09-09T05:43:28;90645.50;;;11.91;83.69
69909;BME280;57190;47.918;8.112;2022-09-09T05:46:06;90655.13;;;11.92;83.58
69909;BME280;57190;47.918;8.112;2022-09-09T05:48:38;90658.31;;;11.94;83.67
69909;BME280;57190;47.918;8.112;2022-09-09T05:51:05;90657.22;;;12.01;83.34
69909;BME280;57190;47.918;8.112;2022-09-09T05:53:32;90656.66;;;12.04;83.28
69909;BME280;57190;47.918;8.112;2022-09-09T05:56:07;90658.22;;;12.10;83.26
69909;BME280;57190;47.918;8.112;2022-09-09T05:58:36;90657.63;;;12.13;83.20
69909;BME280;57190;47.918;8.112;2022-09-09T06:03:36;90658.50;;;12.38;82.51
69909;BME280;57190;47.918;8.112;2022-09-09T06:06:06;90657.13;;;12.40;82.67
69909;BME280;57190;47.918;8.112;2022-09-09T06:08:37;90668.38;;;12.37;82.79
69909;BME280;57190;47.918;8.112;2022-09-09T06:11:12;90672.13;;;12.36;82.39
69909;BME280;57190;47.918;8.112;2022-09-09T06:13:38;90675.66;;;12.32;82.71
69909;BME280;57190;47.918;8.112;2022-09-09T06:16:09;90675.94;;;12.30;83.19
69909;BME280;57190;47.918;8.112;2022-09-09T06:18:37;90671.97;;;12.27;83.38
69909;BME280;57190;47.918;8.112;2022-09-09T06:21:05;90666.38;;;12.24;83.44
69909;BME280;57190;47.918;8.112;2022-09-09T06:23:32;90669.06;;;12.24;83.59
69909;BME280;57190;47.918;8.112;2022-09-09T06:26:12;90669.59;;;12.21;83.77
69909;BME280;57190;47.918;8.112;2022-09-09T06:28:38;90674.44;;;12.19;83.52
69909;BME280;57190;47.918;8.112;2022-09-09T06:31:06;90677.09;;;12.19;83.68
69909;BME280;57190;47.918;8.112;2022-09-09T06:33:35;90684.84;;;12.20;83.51
69909;BME280;57190;47.918;8.112;2022-09-09T06:36:03;90672.81;;;12.18;83.54
69909;BME280;57190;47.918;8.112;2022-09-09T06:38:31;90670.44;;;12.16;83.55
69909;BME280;57190;47.918;8.112;2022-09-09T06:40:59;90656.78;;;12.18;83.75
69909;BME280;57190;47.918;8.112;2022-09-09T06:43:25;90665.56;;;12.23;83.69
69909;BME280;57190;47.918;8.112;2022-09-09T06:46:05;90675.41;;;12.28;83.55
69909;BME280;57190;47.918;8.112;2022-09-09T06:48:31;90678.63;;;12.30;83.81
69909;BME280;57190;47.918;8.112;2022-09-09T06:51:10;90681.28;;;12.30;84.06
69909;BME280;57190;47.918;8.112;2022-09-09T06:53:37;90679.16;;;12.27;84.04
69909;BME280;57190;47.918;8.112;2022-09-09T06:58:47;90692.81;;;12.25;84.20
69909;BME280;57190;47.918;8.112;2022-09-09T07:01:16;90692.31;;;12.23;84.45
69909;BME280;57190;47.918;8.112;2022-09-09T07:03:45;90699.53;;;12.23;84.85
69909;BME280;57190;47.918;8.112;2022-09-09T07:06:14;90703.00;;;12.23;84.85
69909;BME280;57190;47.918;8.112;2022-09-09T07:08:43;90702.16;;;12.28;84.67
69909;BME280;57190;47.918;8.112;2022-09-09T07:11:09;90698.88;;;12.36;84.40
69909;BME280;57190;47.918;8.112;2022-09-09T07:13:35;90701.69;;;12.50;84.14
69909;BME280;57190;47.918;8.112;2022-09-09T07:16:11;90702.38;;;12.61;83.59
69909;BME280;57190;47.918;8.112;2022-09-09T07:18:39;90697.03;;;12.61;83.67
69909;BME280;57190;47.918;8.112;2022-09-09T07:21:05;90693.00;;;12.64;83.54
69909;BME280;57190;47.918;8.112;2022-09-09T07:23:32;90695.94;;;12.67;83.90
69909;BME280;57190;47.918;8.112;2022-09-09T07:25:58;90698.47;;;12.78;82.57
69909;BME280;57190;47.918;8.112;2022-09-09T07:28:25;90705.00;;;12.96;81.09
69909;BME280;57190;47.918;8.112;2022-09-09T07:30:59;90695.50;;;13.03;79.91
69909;BME280;57190;47.918;8.112;2022-09-09T07:33:29;90696.03;;;13.05;81.07
69909;BME280;57190;47.918;8.112;2022-09-09T07:36:21;90707.19;;;13.13;81.36
69909;BME280;57190;47.918;8.112;2022-09-09T07:38:50;90703.09;;;13.20;81.50
69909;BME280;57190;47.918;8.112;2022-09-09T07:41:22;90707.41;;;13.16;82.17
69909;BME280;57190;47.918;8.112;2022-09-09T07:43:49;90710.44;;;13.10;82.67
69909;BME280;57190;47.918;8.112;2022-09-09T07:46:17;90719.84;;;13.07;82.70
69909;BME280;57190;47.918;8.112;2022-09-09T07:48:52;90726.91;;;12.98;82.59
69909;BME280;57190;47.918;8.112;2022-09-09T07:51:20;90727.03;;;12.87;83.34
69909;BME280;57190;47.918;8.112;2022-09-09T07:53:48;90722.22;;;12.84;83.29
69909;BME280;57190;47.918;8.112;2022-09-09T07:56:17;90717.72;;;12.80;83.33
69909;BME280;57190;47.918;8.112;2022-09-09T07:58:46;90718.94;;;12.93;82.90
69909;BME280;57190;47.918;8.112;2022-09-09T08:01:15;90714.72;;;13.11;82.42
69909;BME280;57190;47.918;8.112;2022-09-09T08:03:42;90722.34;;;13.23;82.51
69909;BME280;57190;47.918;8.112;2022-09-09T08:06:08;90738.41;;;13.23;82.91
69909;BME280;57190;47.918;8.112;2022-09-09T08:08:35;90741.22;;;13.12;82.72
69909;BME280;57190;47.918;8.112;2022-09-09T08:11:12;90731.59;;;13.11;82.83
69909;BME280;57190;47.918;8.112;2022-09-09T08:13:39;90730.22;;;13.14;81.72
69909;BME280;57190;47.918;8.112;2022-09-09T08:16:09;90731.09;;;13.28;81.01
69909;BME280;57190;47.918;8.112;2022-09-09T08:18:37;90737.66;;;13.65;80.70
69909;BME280;57190;47.918;8.112;2022-09-09T08:21:09;90737.38;;;13.86;79.79
69909;BME280;57190;47.918;8.112;2022-09-09T08:23:37;90739.34;;;13.99;78.15
69909;BME280;57190;47.918;8.112;2022-09-09T08:26:06;90751.16;;;13.79;79.24
69909;BME280;57190;47.918;8.112;2022-09-09T08:28:31;90755.69;;;13.60;80.15
69909;BME280;57190;47.918;8.112;2022-09-09T08:31:05;90756.72;;;13.40;80.49
69909;BME280;57190;47.918;8.112;2022-09-09T08:33:32;90766.00;;;13.23;80.85
69909;BME280;57190;47.918;8.112;2022-09-09T08:35:58;90763.19;;;13.09;80.98
69909;BME280;57190;47.918;8.112;2022-09-09T08:38:24;90763.38;;;12.94;81.58
69909;BME280;57190;47.918;8.112;2022-09-09T08:40:53;90755.63;;;12.92;81.29
69909;BME280;57190;47.918;8.112;2022-09-09T08:43:28;90760.16;;;12.92;81.10
69909;BME280;57190;47.918;8.112;2022-09-09T08:46:21;90750.22;;;13.21;80.67
69909;BME280;57190;47.918;8.112;2022-09-09T08:49:19;90739.91;;;13.58;78.84
69909;BME280;57190;47.918;8.112;2022-09-09T08:51:49;90747.22;;;13.91;78.66
69909;BME280;57190;47.918;8.112;2022-09-09T08:54:15;90748.44;;;14.18;78.49
69909;BME280;57190;47.918;8.112;2022-09-09T08:56:42;90745.75;;;14.37;78.82
69909;BME280;57190;47.918;8.112;2022-09-09T08:59:11;90751.13;;;14.70;79.04
69909;BME280;57190;47.918;8.112;2022-09-09T09:02:15;90744.72;;;14.85;78.23
69909;BME280;57190;47.918;8.112;2022-09-09T09:04:56;90756.72;;;14.73;75.09
69909;BME280;57190;47.918;8.112;2022-09-09T09:13:01;90749.56;;;14.83;74.15
69909;BME280;57190;47.918;8.112;2022-09-09T09:15:32;90750.00;;;14.90;74.60
69909;BME280;57190;47.918;8.112;2022-09-09T09:18:05;90747.63;;;15.02;75.31
69909;BME280;57190;47.918;8.112;2022-09-09T09:20:53;90745.72;;;15.03;74.87
69909;BME280;57190;47.918;8.112;2022-09-09T09:23:26;90741.75;;;15.00;70.46
69909;BME280;57190;47.918;8.112;2022-09-09T09:25:59;90754.25;;;14.91;72.01
69909;BME280;57190;47.918;8.112;2022-09-09T09:28:28;90752.47;;;14.86;72.81
69909;BME280;57190;47.918;8.112;2022-09-09T09:31:04;90749.84;;;14.67;71.73
69909;BME280;57190;47.918;8.112;2022-09-09T09:36:07;90738.31;;;14.67;71.60
69909;BME280;57190;47.918;8.112;2022-09-09T09:38:34;90731.28;;;14.52;71.12
69909;BME280;57190;47.918;8.112;2022-09-09T09:41:00;90738.34;;;14.48;72.64
69909;BME280;57190;47.918;8.112;2022-09-09T09:45:57;90738.56;;;14.84;72.87
69909;BME280;57190;47.918;8.112;2022-09-09T09:48:24;90734.19;;;15.02;71.65
69909;BME280;57190;47.918;8.112;2022-09-09T09:51:09;90732.72;;;14.96;69.30
69909;BME280;57190;47.918;8.112;2022-09-09T09:53:38;90734.09;;;15.07;72.18
69909;BME280;57190;47.918;8.112;2022-09-09T09:56:06;90734.53;;;15.15;71.87
69909;BME280;57190;47.918;8.112;2022-09-09T10:01:31;90723.16;;;15.04;68.90
69909;BME280;57190;47.918;8.112;2022-09-09T10:04:13;90736.97;;;15.11;70.59
69909;BME280;57190;47.918;8.112;2022-09-09T10:06:40;90735.81;;;15.31;69.09
69909;BME280;57190;47.918;8.112;2022-09-09T10:16:56;90743.16;;;15.12;67.17
69909;BME280;57190;47.918;8.112;2022-09-09T10:19:33;90740.09;;;15.18;68.83
69909;BME280;57190;47.918;8.112;2022-09-09T10:27:28;90734.09;;;15.63;62.00
69909;BME280;57190;47.918;8.112;2022-09-09T10:33:08;90733.78;;;15.93;64.30
69909;BME280;57190;47.918;8.112;2022-09-09T10:35:53;90730.97;;;15.98;64.28
69909;BME280;57190;47.918;8.112;2022-09-09T10:38:33;90726.50;;;15.93;62.60
69909;BME280;57190;47.918;8.112;2022-09-09T10:46:39;90719.78;;;16.18;61.53
69909;BME280;57190;47.918;8.112;2022-09-09T10:52:21;90723.94;;;16.47;61.00
69909;BME280;57190;47.918;8.112;2022-09-09T10:57:44;90717.03;;;16.55;59.73
69909;BME280;57190;47.918;8.112;2022-09-09T11:00:30;90708.06;;;16.69;61.59
69909;BME280;57190;47.918;8.112;2022-09-09T11:03:03;90710.25;;;16.66;61.88
69909;BME280;57190;47.918;8.112;2022-09-09T11:08:10;90708.28;;;16.27;60.24
69909;BME280;57190;47.918;8.112;2022-09-09T11:13:48;90711.88;;;16.45;61.25
69909;BME280;57190;47.918;8.112;2022-09-09T11:16:47;90713.47;;;16.23;59.81
69909;BME280;57190;47.918;8.112;2022-09-09T11:21:49;90715.00;;;15.51;61.75
69909;BME280;57190;47.918;8.112;2022-09-09T11:24:41;90720.19;;;15.33;63.76
69909;BME280;57190;47.918;8.112;2022-09-09T11:27:15;90733.00;;;15.22;63.96
69909;BME280;57190;47.918;8.112;2022-09-09T11:38:44;90737.06;;;14.92;65.47
69909;BME280;57190;47.918;8.112;2022-09-09T11:41:11;90739.56;;;15.02;64.85
69909;BME280;57190;47.918;8.112;2022-09-09T11:43:43;90736.59;;;15.18;63.86
69909;BME280;57190;47.918;8.112;2022-09-09T11:46:10;90728.03;;;15.30;64.63
69909;BME280;57190;47.918;8.112;2022-09-09T11:48:37;90725.75;;;15.51;63.06
69909;BME280;57190;47.918;8.112;2022-09-09T11:51:08;90730.50;;;15.82;62.69
69909;BME280;57190;47.918;8.112;2022-09-09T11:53:54;90736.44;;;16.07;63.98
69909;BME280;57190;47.918;8.112;2022-09-09T11:56:43;90723.66;;;16.12;63.43
69909;BME280;57190;47.918;8.112;2022-09-09T12:04:41;90752.44;;;15.47;66.00
69909;BME280;57190;47.918;8.112;2022-09-09T12:09:49;90743.75;;;15.08;68.13
69909;BME280;57190;47.918;8.112;2022-09-09T12:17:51;90745.19;;;14.73;70.40
69909;BME280;57190;47.918;8.112;2022-09-09T12:37:00;90748.31;;;14.61;70.94
69909;BME280;57190;47.918;8.112;2022-09-09T12:39:54;90739.56;;;14.88;70.61
69909;BME280;57190;47.918;8.112;2022-09-09T12:42:22;90740.78;;;15.38;70.80
69909;BME280;57190;47.918;8.112;2022-09-09T12:44:57;90729.81;;;15.76;68.91
69909;BME280;57190;47.918;8.112;2022-09-09T12:47:34;90727.47;;;16.11;67.20
69909;BME280;57190;47.918;8.112;2022-09-09T12:50:03;90726.63;;;16.25;65.30
69909;BME280;57190;47.918;8.112;2022-09-09T12:52:35;90720.38;;;16.38;64.92
69909;BME280;57190;47.918;8.112;2022-09-09T12:55:04;90709.91;;;16.59;63.53
69909;BME280;57190;47.918;8.112;2022-09-09T12:57:36;90708.09;;;16.46;62.66
69909;BME280;57190;47.918;8.112;2022-09-09T13:00:23;90710.03;;;16.54;61.41
69909;BME280;57190;47.918;8.112;2022-09-09T13:02:54;90705.09;;;16.25;61.77
69909;BME280;57190;47.918;8.112;2022-09-09T13:05:24;90706.59;;;15.94;62.36
69909;BME280;57190;47.918;8.112;2022-09-09T13:07:51;90702.22;;;15.84;61.82
69909;BME280;57190;47.918;8.112;2022-09-09T13:10:24;90704.53;;;15.63;61.79
69909;BME280;57190;47.918;8.112;2022-09-09T13:12:52;90705.75;;;15.57;62.44
69909;BME280;57190;47.918;8.112;2022-09-09T13:15:23;90710.91;;;15.53;63.08
69909;BME280;57190;47.918;8.112;2022-09-09T13:17:57;90708.81;;;15.64;64.65
69909;BME280;57190;47.918;8.112;2022-09-09T13:20:24;90712.78;;;15.81;64.15
69909;BME280;57190;47.918;8.112;2022-09-09T13:22:51;90704.06;;;15.98;62.29
69909;BME280;57190;47.918;8.112;2022-09-09T13:28:45;90694.97;;;16.08;61.84
69909;BME280;57190;47.918;8.112;2022-09-09T13:31:24;90694.22;;;15.93;62.32
69909;BME280;57190;47.918;8.112;2022-09-09T13:33:52;90690.25;;;15.77;61.10
69909;BME280;57190;47.918;8.112;2022-09-09T13:36:28;90699.94;;;15.64;62.02
69909;BME280;57190;47.918;8.112;2022-09-09T13:38:57;90702.38;;;15.51;62.89
69909;BME280;57190;47.918;8.112;2022-09-09T13:41:42;90729.34;;;15.18;63.00
69909;BME280;57190;47.918;8.112;2022-09-09T13:44:24;90752.84;;;14.46;64.25
69909;BME280;57190;47.918;8.112;2022-09-09T13:49:38;90753.22;;;13.63;69.49
69909;BME280;57190;47.918;8.112;2022-09-09T13:52:12;90746.56;;;13.61;69.10
69909;BME280;57190;47.918;8.112;2022-09-09T13:54:39;90727.06;;;13.74;68.76
69909;BME280;57190;47.918;8.112;2022-09-09T13:57:05;90727.88;;;13.94;69.88
69909;BME280;57190;47.918;8.112;2022-09-09T13:59:31;90726.53;;;14.29;69.24
69909;BME280;57190;47.918;8.112;2022-09-09T14:01:57;90721.13;;;14.82;69.31
69909;BME280;57190;47.918;8.112;2022-09-09T14:04:23;90721.97;;;15.10;68.21
69909;BME280;57190;47.918;8.112;2022-09-09T14:06:49;90706.16;;;15.36;68.57
69909;BME280;57190;47.918;8.112;2022-09-09T14:09:16;90708.00;;;15.64;66.87
69909;BME280;57190;47.918;8.112;2022-09-09T14:11:44;90719.34;;;15.75;66.35
69909;BME280;57190;47.918;8.112;2022-09-09T14:14:10;90721.84;;;15.85;65.77
69909;BME280;57190;47.918;8.112;2022-09-09T14:16:36;90728.28;;;15.98;64.58
69909;BME280;57190;47.918;8.112;2022-09-09T14:19:03;90728.47;;;16.01;63.08
69909;BME280;57190;47.918;8.112;2022-09-09T14:21:29;90726.28;;;16.03;62.81
69909;BME280;57190;47.918;8.112;2022-09-09T14:23:54;90721.59;;;16.09;63.63
69909;BME280;57190;47.918;8.112;2022-09-09T14:26:21;90722.69;;;16.08;62.24
69909;BME280;57190;47.918;8.112;2022-09-09T14:28:47;90735.91;;;16.18;61.87
69909;BME280;57190;47.918;8.112;2022-09-09T14:31:13;90732.59;;;16.22;62.35
69909;BME280;57190;47.918;8.112;2022-09-09T14:33:40;90724.84;;;16.20;63.29
69909;BME280;57190;47.918;8.112;2022-09-09T14:36:06;90719.22;;;16.30;62.53
69909;BME280;57190;47.918;8.112;2022-09-09T14:38:36;90723.31;;;16.28;62.19
69909;BME280;57190;47.918;8.112;2022-09-09T14:41:05;90722.19;;;16.06;61.31
69909;BME280;57190;47.918;8.112;2022-09-09T14:43:31;90714.56;;;15.71;60.94
69909;BME280;57190;47.918;8.112;2022-09-09T14:46:07;90717.47;;;15.75;62.01
69909;BME280;57190;47.918;8.112;2022-09-09T14:48:33;90726.50;;;15.79;61.77
69909;BME280;57190;47.918;8.112;2022-09-09T14:51:13;90712.97;;;15.98;61.36
69909;BME280;57190;47.918;8.112;2022-09-09T14:53:41;90712.97;;;16.21;61.50
69909;BME280;57190;47.918;8.112;2022-09-09T14:56:10;90699.94;;;16.14;61.32
69909;BME280;57190;47.918;8.112;2022-09-09T14:58:37;90701.91;;;16.23;60.59
69909;BME280;57190;47.918;8.112;2022-09-09T15:01:14;90707.44;;;16.03;60.58
69909;BME280;57190;47.918;8.112;2022-09-09T15:03:42;90701.13;;;16.22;60.48
69909;BME280;57190;47.918;8.112;2022-09-09T15:06:11;90695.25;;;15.83;61.55
69909;BME280;57190;47.918;8.112;2022-09-09T15:08:38;90694.75;;;15.67;61.85
69909;BME280;57190;47.918;8.112;2022-09-09T15:11:05;90696.19;;;15.37;62.58
69909;BME280;57190;47.918;8.112;2022-09-09T15:13:34;90700.97;;;15.40;61.64
69909;BME280;57190;47.918;8.112;2022-09-09T15:16:07;90697.69;;;15.15;62.91
69909;BME280;57190;47.918;8.112;2022-09-09T15:18:33;90699.59;;;15.01;63.59
69909;BME280;57190;47.918;8.112;2022-09-09T15:20:59;90703.25;;;15.05;63.52
69909;BME280;57190;47.918;8.112;2022-09-09T15:23:26;90705.34;;;14.94;63.75
69909;BME280;57190;47.918;8.112;2022-09-09T15:25:55;90709.13;;;14.93;64.21
69909;BME280;57190;47.918;8.112;2022-09-09T15:28:22;90702.66;;;15.08;64.79
69909;BME280;57190;47.918;8.112;2022-09-09T15:30:52;90701.09;;;15.35;63.50